Saint George, Georgia
Current Conditions -  °F | °C
As of 8:56 PM on Saturday 22 Nov 2014 (Local Time) from KJAX Reporting Station
Overcast Overcast  
Wind Chill: 67°   Ceiling: 6000
Heat Index: 67°   Visibility: 10mi
Dew Point: 62°   Wind: 10mph
Humidity: 84%   Direction: 90°E
Pressure: 30.18"   Gusts: NA
Location:  30.52°N, 82.04°W
Report Text: KJAX 230156Z 09009KT 10SM OVC060 19/17 A3018 RMK AO2 SLP220 T01940167
Loading
Personal Weather Stations






























Interactive Weather Map New forecast layout! Learn more

10-Day Weather Forecast

Advertisements
Track Severe Weather on mobile